Time;durP1;ratioP1;P1;durP2;ratioP2;P2;SDS_P1;SDS_P2;PMS_P1;PMS_P2;Temp;Humidity;BMP_temperature;BMP_pressure;BME280_temperature;BME280_humidity;BME280_pressure;Samples;Min_cycle;Max_cycle;Signal;HPM_P1;HPM_P2
2022/10/08 00:00:18;;;;;;;13.00;10.93;;;;;;;16.61;100.00;100470.20;2741227;85;21023;-60
2022/10/08 00:04:21;;;;;;;16.48;13.13;;;;;;;16.58;100.00;100461.96;2739840;84;21040;-60
2022/10/08 00:08:23;;;;;;;12.37;10.20;;;;;;;16.53;100.00;100453.55;2760495;85;21060;-60
2022/10/08 00:12:27;;;;;;;18.80;11.57;;;;;;;16.39;100.00;100455.83;2747109;85;21528;-60
2022/10/08 00:16:35;;;;;;;13.88;10.63;;;;;;;16.32;100.00;100450.77;2689133;85;21069;-60
2022/10/08 00:20:36;;;;;;;16.23;10.23;;;;;;;16.36;100.00;100444.08;2730758;85;21028;-60
2022/10/08 00:24:41;;;;;;;21.40;10.98;;;;;;;16.32;100.00;100444.55;2770488;85;20968;-60
2022/10/08 00:28:45;;;;;;;13.18;9.80;;;;;;;16.37;100.00;100437.70;2769423;85;21019;-60
2022/10/08 00:33:00;;;;;;;13.53;11.03;;;;;;;16.49;100.00;100436.06;2759327;84;21172;-60
2022/10/08 00:37:01;;;;;;;12.47;9.38;;;;;;;16.54;100.00;100421.67;2765723;85;21004;-60
2022/10/08 00:41:09;;;;;;;12.45;10.18;;;;;;;16.44;100.00;100420.94;2791437;84;21028;-60
2022/10/08 00:45:12;;;;;;;12.90;10.70;;;;;;;16.32;100.00;100419.91;2742179;85;21048;-59
2022/10/08 00:49:20;;;;;;;12.78;11.48;;;;;;;16.28;100.00;100419.38;2771746;85;21036;-60
2022/10/08 00:53:22;;;;;;;16.62;10.15;;;;;;;16.25;100.00;100403.59;2719665;85;21079;-60
2022/10/08 00:57:25;;;;;;;11.80;10.05;;;;;;;16.07;100.00;100406.33;2702514;85;21545;-61
2022/10/08 01:01:28;;;;;;;15.88;11.70;;;;;;;15.95;100.00;100398.23;2754203;85;21003;-60
2022/10/08 01:05:47;;;;;;;14.80;11.43;;;;;;;15.94;100.00;100393.86;2753679;85;21114;-60
2022/10/08 01:09:54;;;;;;;17.60;10.78;;;;;;;15.98;100.00;100388.52;2761385;85;21131;-61
2022/10/08 01:14:19;;;;;;;12.85;10.48;;;;;;;16.05;100.00;100386.88;2770448;84;21063;-60
2022/10/08 01:19:02;;;;;;;11.85;10.53;;;;;;;16.06;100.00;100389.89;2739377;86;21124;-60
2022/10/08 01:23:52;;;;;;;10.68;9.25;;;;;;;16.04;100.00;100379.83;2562560;90;21131;-60
2022/10/08 01:32:51;;;;;;;13.13;9.63;;;;;;;15.87;100.00;100370.82;2548333;92;21045;-60
2022/10/08 01:37:00;;;;;;;11.30;10.13;;;;;;;15.87;100.00;100365.45;2529678;92;21147;-61
2022/10/08 01:41:05;;;;;;;13.15;11.08;;;;;;;15.74;100.00;100368.56;2550622;91;21061;-60
2022/10/08 01:45:17;;;;;;;11.70;10.53;;;;;;;15.65;100.00;100360.11;2588890;88;21076;-60
2022/10/08 01:49:28;;;;;;;11.68;9.98;;;;;;;15.66;100.00;100359.11;2622157;89;20997;-60
2022/10/08 01:53:33;;;;;;;14.23;11.00;;;;;;;15.67;100.00;100354.09;2620703;89;21148;-61
2022/10/08 01:57:37;;;;;;;12.73;8.60;;;;;;;15.64;100.00;100360.62;2746459;83;21122;-60
2022/10/08 02:02:04;;;;;;;13.55;10.78;;;;;;;15.55;100.00;100370.45;2777900;84;21005;-60
2022/10/08 02:06:06;;;;;;;11.88;10.70;;;;;;;15.38;100.00;100361.42;2730924;84;21047;-60
2022/10/08 02:10:18;;;;;;;12.78;10.68;;;;;;;15.38;100.00;100360.59;2712976;86;21064;-59
2022/10/08 02:14:24;;;;;;;12.58;9.93;;;;;;;15.43;100.00;100355.60;2710724;85;21029;-59
2022/10/08 02:18:57;;;;;;;11.85;9.65;;;;;;;15.49;100.00;100353.62;2711007;86;21086;-62
2022/10/08 02:23:23;;;;;;;11.38;10.20;;;;;;;15.44;100.00;100355.95;2671679;88;21173;-59
2022/10/08 02:27:29;;;;;;;13.18;8.85;;;;;;;15.48;100.00;100360.50;2749232;85;21060;-60
2022/10/08 02:31:51;;;;;;;17.67;10.00;;;;;;;15.55;100.00;100349.00;2750393;84;21056;-59
2022/10/08 02:35:56;;;;;;;12.47;9.00;;;;;;;15.58;100.00;100355.87;2705673;86;21001;-60
2022/10/08 02:40:09;;;;;;;18.77;10.98;;;;;;;15.52;100.00;100355.99;2745327;84;21008;-60
2022/10/08 02:44:31;;;;;;;11.50;9.10;;;;;;;15.58;100.00;100351.84;2759605;84;21039;-60
2022/10/08 02:48:35;;;;;;;13.13;11.33;;;;;;;15.39;100.00;100355.58;2748416;85;21090;-61
2022/10/08 02:52:41;;;;;;;11.33;10.13;;;;;;;15.28;100.00;100353.47;2707036;86;21011;-60
2022/10/08 02:57:00;;;;;;;14.07;11.38;;;;;;;15.21;100.00;100345.72;2713788;86;21036;-60
2022/10/08 03:01:46;;;;;;;16.12;11.30;;;;;;;15.21;100.00;100349.73;2735483;85;21032;-59
2022/10/08 03:05:51;;;;;;;15.73;14.07;;;;;;;15.17;100.00;100347.03;2740926;84;21019;-60
2022/10/08 03:09:55;;;;;;;17.73;12.23;;;;;;;15.11;100.00;100340.93;2757030;83;21036;-60
2022/10/08 03:13:59;;;;;;;18.77;13.00;;;;;;;15.11;100.00;100348.97;2713714;86;21063;-59
2022/10/08 03:18:05;;;;;;;14.30;12.40;;;;;;;15.21;100.00;100351.56;2711193;86;21060;-59
2022/10/08 03:22:07;;;;;;;16.42;12.30;;;;;;;15.22;100.00;100350.56;2724308;85;21051;-60
2022/10/08 03:26:08;;;;;;;20.05;12.75;;;;;;;15.11;100.00;100340.93;2763342;85;21039;-60
2022/10/08 03:30:11;;;;;;;12.85;11.55;;;;;;;14.96;100.00;100342.84;2772914;85;20982;-60
2022/10/08 03:34:13;;;;;;;17.02;13.88;;;;;;;14.79;100.00;100334.30;2760112;85;21072;-60
2022/10/08 03:38:14;;;;;;;13.78;12.50;;;;;;;14.67;100.00;100333.65;2737268;86;21023;-61
2022/10/08 03:42:15;;;;;;;16.55;11.15;;;;;;;14.56;100.00;100336.05;2753658;86;21044;-60
2022/10/08 03:46:20;;;;;;;14.70;12.03;;;;;;;14.46;100.00;100335.25;2744525;85;21044;-60
2022/10/08 03:50:21;;;;;;;15.40;13.53;;;;;;;14.43;100.00;100339.91;2736322;84;21084;-61
2022/10/08 03:54:23;;;;;;;16.42;13.15;;;;;;;14.36;100.00;100336.64;2745831;84;20996;-60
2022/10/08 03:58:24;;;;;;;15.83;13.60;;;;;;;14.37;100.00;100338.33;2734146;84;21080;-61
2022/10/08 04:02:25;;;;;;;15.50;13.50;;;;;;;14.42;100.00;100332.88;2745877;85;21052;-60
2022/10/08 04:06:26;;;;;;;15.28;13.58;;;;;;;14.47;100.00;100333.77;2737564;85;21034;-61
2022/10/08 04:10:27;;;;;;;20.48;16.10;;;;;;;14.46;100.00;100331.23;2750210;85;21072;-60
2022/10/08 04:14:30;;;;;;;18.00;15.53;;;;;;;14.50;100.00;100322.77;2721930;85;21024;-60
2022/10/08 04:18:32;;;;;;;21.05;15.95;;;;;;;14.57;100.00;100322.49;2739214;85;21006;-61
2022/10/08 04:22:33;;;;;;;19.02;15.78;;;;;;;14.65;100.00;100325.75;2741721;83;21017;-60
2022/10/08 04:26:34;;;;;;;19.80;17.70;;;;;;;14.73;100.00;100323.69;2735399;86;21549;-60
2022/10/08 04:30:35;;;;;;;17.12;14.98;;;;;;;14.81;100.00;100328.29;2723612;85;21046;-60
2022/10/08 04:34:36;;;;;;;18.90;14.13;;;;;;;14.83;100.00;100323.11;2743979;86;21132;-61
2022/10/08 04:38:54;;;;;;;21.97;16.87;;;;;;;14.82;100.00;100323.28;2754586;85;21037;-60
2022/10/08 04:42:55;;;;;;;17.90;16.00;;;;;;;14.88;100.00;100319.98;2729690;85;21074;-61
2022/10/08 04:46:56;;;;;;;22.50;14.87;;;;;;;14.82;100.00;100315.24;2739433;86;21060;-60
2022/10/08 04:51:09;;;;;;;18.52;15.72;;;;;;;14.89;100.00;100320.31;2749839;85;21023;-60
2022/10/08 04:55:10;;;;;;;28.90;14.93;;;;;;;14.94;100.00;100315.37;2755397;86;21056;-61
2022/10/08 04:59:31;;;;;;;19.70;15.88;;;;;;;14.95;100.00;100318.39;2746091;85;21370;-61
2022/10/08 05:03:44;;;;;;;22.05;16.20;;;;;;;14.99;100.00;100315.73;2756331;85;21088;-60
2022/10/08 05:07:45;;;;;;;22.40;16.15;;;;;;;14.95;100.00;100313.03;2757946;85;21036;-60
2022/10/08 05:11:52;;;;;;;15.08;12.65;;;;;;;14.96;100.00;100316.05;2721820;86;21573;-60
2022/10/08 05:15:53;;;;;;;16.27;12.85;;;;;;;14.91;100.00;100312.14;2825985;80;21198;-60
2022/10/08 05:19:54;;;;;;;19.23;16.12;;;;;;;14.89;100.00;100312.80;2780212;85;21023;-60
2022/10/08 05:24:00;;;;;;;17.12;14.75;;;;;;;14.99;100.00;100313.55;2797148;84;20985;-60
2022/10/08 05:28:03;;;;;;;19.10;15.20;;;;;;;15.06;100.00;100314.63;2875842;82;20985;-60
2022/10/08 05:32:04;;;;;;;24.12;17.45;;;;;;;15.12;100.00;100311.32;2836342;82;21006;-60
2022/10/08 05:36:08;;;;;;;24.70;18.98;;;;;;;15.25;100.00;100312.25;2820779;82;21112;-60
2022/10/08 05:40:11;;;;;;;21.90;18.65;;;;;;;15.34;100.00;100315.02;2804297;82;21135;-60
2022/10/08 05:44:13;;;;;;;19.12;15.00;;;;;;;15.31;100.00;100322.00;2847862;82;21024;-60
2022/10/08 05:48:20;;;;;;;18.82;16.57;;;;;;;15.32;100.00;100321.00;2830913;82;21019;-60
2022/10/08 05:52:21;;;;;;;23.22;16.55;;;;;;;15.33;100.00;100331.58;2832179;82;21007;-61
2022/10/08 05:56:25;;;;;;;18.77;16.00;;;;;;;15.42;100.00;100327.95;2815268;82;21019;-59
2022/10/08 06:00:26;;;;;;;17.73;14.87;;;;;;;15.42;100.00;100325.78;2815158;82;21054;-60
2022/10/08 06:04:27;;;;;;;23.35;16.82;;;;;;;15.41;100.00;100324.92;2846772;82;21212;-60
2022/10/08 06:08:28;;;;;;;30.35;18.40;;;;;;;15.54;100.00;100325.02;2870115;82;21164;-60
2022/10/08 06:12:35;;;;;;;22.73;19.23;;;;;;;15.60;100.00;100312.31;2850501;83;20977;-61
2022/10/08 06:16:38;;;;;;;25.25;18.17;;;;;;;15.70;100.00;100322.93;2839898;82;21017;-61
2022/10/08 06:20:39;;;;;;;19.32;17.32;;;;;;;15.70;100.00;100325.61;2855670;82;21089;-62
2022/10/08 06:24:40;;;;;;;19.60;16.48;;;;;;;15.65;100.00;100322.57;2856964;82;20996;-62
2022/10/08 06:28:41;;;;;;;24.30;18.02;;;;;;;15.58;100.00;100329.06;2848862;83;21007;-61
2022/10/08 06:32:43;;;;;;;23.20;17.12;;;;;;;15.49;100.00;100320.64;2813046;82;21337;-62
2022/10/08 06:36:44;;;;;;;23.12;19.67;;;;;;;15.54;100.00;100328.55;2851592;81;21152;-61
2022/10/08 06:40:46;;;;;;;19.98;15.78;;;;;;;15.63;100.00;100328.59;2765406;84;21012;-61
2022/10/08 06:44:48;;;;;;;21.93;18.30;;;;;;;15.64;100.00;100323.09;2783551;85;21083;-63
2022/10/08 06:48:50;;;;;;;24.98;19.05;;;;;;;15.74;100.00;100328.34;2805858;82;21059;-62
2022/10/08 06:52:55;;;;;;;20.57;16.82;;;;;;;15.85;100.00;100329.39;2785089;83;21094;-62
2022/10/08 06:56:56;;;;;;;19.55;17.48;;;;;;;16.05;100.00;100327.02;2838808;83;21015;-61
2022/10/08 07:01:15;;;;;;;24.35;18.12;;;;;;;16.22;100.00;100327.92;2850257;82;21007;-61
2022/10/08 07:05:16;;;;;;;19.70;16.70;;;;;;;16.44;100.00;100335.03;2844756;82;21074;-62
2022/10/08 07:09:20;;;;;;;19.50;17.45;;;;;;;16.72;100.00;100330.76;2828170;83;21039;-62
2022/10/08 07:13:21;;;;;;;21.52;18.75;;;;;;;16.90;100.00;100334.14;2844964;82;21050;-62
2022/10/08 07:17:24;;;;;;;20.20;15.65;;;;;;;17.05;100.00;100331.66;2837256;82;21011;-62
2022/10/08 07:21:45;;;;;;;21.30;17.30;;;;;;;17.16;100.00;100335.00;2848085;82;21032;-62
2022/10/08 07:26:03;;;;;;;23.92;17.57;;;;;;;17.27;100.00;100332.81;2826919;82;21076;-92
2022/10/08 07:30:05;;;;;;;19.12;16.62;;;;;;;17.43;100.00;100332.47;2833054;82;21053;-92
2022/10/08 07:34:12;;;;;;;19.45;15.13;;;;;;;17.68;100.00;100336.46;2849603;81;21047;-93
2022/10/08 07:38:18;;;;;;;23.95;17.37;;;;;;;17.89;99.89;100325.67;2828216;82;21032;-92
2022/10/08 07:42:19;;;;;;;18.07;14.70;;;;;;;18.05;99.73;100331.01;2828194;81;21063;-92
2022/10/08 07:46:21;;;;;;;21.80;14.73;;;;;;;18.04;97.13;100333.37;2832602;82;21076;-92
2022/10/08 07:50:23;;;;;;;21.90;16.35;;;;;;;18.06;96.65;100343.98;2833606;81;21042;-92
2022/10/08 07:54:24;;;;;;;25.02;17.85;;;;;;;18.00;96.87;100345.47;2840459;82;21103;-92
2022/10/08 07:58:25;;;;;;;21.80;17.42;;;;;;;18.03;99.37;100352.41;2826540;82;21080;-92
2022/10/08 08:02:26;;;;;;;20.02;15.18;;;;;;;18.11;98.66;100349.67;2837757;82;22270;-91
2022/10/08 08:06:30;;;;;;;20.23;14.63;;;;;;;18.11;98.27;100343.80;2837427;82;21071;-92
2022/10/08 08:10:32;;;;;;;15.85;13.28;;;;;;;18.20;98.16;100340.56;2838309;81;21100;-92
2022/10/08 08:14:33;;;;;;;23.20;16.45;;;;;;;18.30;98.38;100344.39;2839680;82;21049;-91
2022/10/08 08:18:38;;;;;;;20.80;16.07;;;;;;;18.43;98.84;100345.66;2832510;81;21039;-92
2022/10/08 08:22:39;;;;;;;22.32;14.87;;;;;;;18.52;99.27;100344.09;2839063;82;21029;-92
2022/10/08 08:26:42;;;;;;;26.23;16.37;;;;;;;18.64;100.00;100347.75;2829079;82;21063;-92
2022/10/08 08:30:43;;;;;;;17.23;14.40;;;;;;;18.77;98.75;100333.69;2825372;82;21041;-91
2022/10/08 08:34:45;;;;;;;19.25;14.05;;;;;;;19.00;99.19;100331.03;2826774;82;21052;-92
2022/10/08 08:38:47;;;;;;;28.15;14.23;;;;;;;19.08;97.71;100335.00;2835447;82;21044;-92
2022/10/08 08:42:55;;;;;;;20.82;15.38;;;;;;;19.24;98.30;100335.89;2824860;81;21101;-92
2022/10/08 08:47:34;;;;;;;22.48;14.87;;;;;;;19.42;97.35;100335.55;2839945;81;21056;-92
2022/10/08 08:51:35;;;;;;;15.83;13.83;;;;;;;19.55;96.06;100337.12;2853330;81;21127;-92
2022/10/08 08:55:44;;;;;;;15.00;13.25;;;;;;;19.61;95.08;100344.14;2869937;81;21024;-92
2022/10/08 08:59:48;;;;;;;20.97;14.68;;;;;;;19.62;92.52;100343.12;2767451;84;21403;-91
2022/10/08 09:03:57;;;;;;;17.60;14.53;;;;;;;19.77;93.46;100348.55;2830676;81;21008;-90
2022/10/08 09:08:06;;;;;;;16.45;11.53;;;;;;;19.85;93.51;100352.50;2834460;81;21008;-92
2022/10/08 09:12:31;;;;;;;16.60;11.05;;;;;;;19.92;92.60;100358.03;2823476;82;21120;-91
2022/10/08 09:16:34;;;;;;;18.15;12.70;;;;;;;19.97;92.57;100356.45;2831130;82;21578;-92
2022/10/08 09:20:35;;;;;;;19.12;12.63;;;;;;;19.97;92.52;100366.40;2831961;82;21069;-91
2022/10/08 09:24:36;;;;;;;17.67;14.18;;;;;;;19.90;93.09;100373.02;2822463;82;21085;-90
2022/10/08 09:28:45;;;;;;;16.35;14.50;;;;;;;19.80;92.25;100370.59;2839367;82;21117;-91
2022/10/08 09:32:48;;;;;;;17.98;14.65;;;;;;;19.65;92.35;100373.28;2822800;82;21080;-92
2022/10/08 09:37:04;;;;;;;21.07;14.43;;;;;;;19.59;93.06;100378.56;2827343;81;21214;-92
2022/10/08 09:41:10;;;;;;;20.70;13.58;;;;;;;19.49;92.51;100377.47;2830425;82;21081;-93
2022/10/08 09:45:43;;;;;;;20.50;15.23;;;;;;;19.46;94.17;100373.30;2840455;82;21060;-91
2022/10/08 09:49:50;;;;;;;16.15;13.13;;;;;;;19.51;94.57;100380.33;2824961;81;21677;-90
2022/10/08 09:53:56;;;;;;;16.02;14.33;;;;;;;19.58;95.28;100378.23;2838873;82;21037;-89
2022/10/08 09:58:06;;;;;;;18.62;15.23;;;;;;;19.61;96.09;100378.72;2838140;81;21120;-88
2022/10/08 10:02:21;;;;;;;17.00;13.53;;;;;;;19.62;95.65;100375.49;2814119;82;21147;-90
2022/10/08 10:06:38;;;;;;;22.27;14.85;;;;;;;19.68;95.97;100373.43;2771574;82;21180;-90
2022/10/08 10:10:47;;;;;;;21.77;16.37;;;;;;;19.73;95.30;100375.55;2774001;84;21089;-90
2022/10/08 10:14:55;;;;;;;18.73;13.78;;;;;;;19.75;95.47;100371.66;2747490;83;21033;-93
2022/10/08 10:19:02;;;;;;;17.00;14.60;;;;;;;19.76;94.99;100372.52;2757252;83;21046;-92
2022/10/08 10:23:18;;;;;;;17.17;13.08;;;;;;;19.76;95.69;100363.89;2760185;84;21102;-92
2022/10/08 10:27:35;;;;;;;17.65;14.70;;;;;;;19.81;95.66;100360.64;2789406;83;21035;-92
2022/10/08 10:32:00;;;;;;;18.98;16.02;;;;;;;19.93;96.00;100362.41;2774893;82;21084;-90
2022/10/08 10:36:06;;;;;;;18.40;14.07;;;;;;;20.04;95.52;100370.55;2765879;83;21010;-89
2022/10/08 10:40:36;;;;;;;24.32;15.55;;;;;;;20.08;94.55;100363.25;2704637;84;21067;-90
2022/10/08 10:44:54;;;;;;;16.93;13.68;;;;;;;20.14;93.54;100367.56;2810098;82;20991;-89
2022/10/08 10:48:55;;;;;;;18.12;13.50;;;;;;;20.20;94.48;100364.95;2829011;82;21040;-93
2022/10/08 10:53:16;;;;;;;19.40;13.53;;;;;;;20.36;94.54;100359.86;2824557;82;21091;-94
2022/10/08 10:57:41;;;;;;;18.40;13.80;;;;;;;20.48;92.78;100364.25;2813710;82;21048;-89
2022/10/08 11:01:50;;;;;;;16.45;11.88;;;;;;;20.63;93.11;100364.22;2770502;84;21088;-91
2022/10/08 11:06:12;;;;;;;14.28;11.75;;;;;;;20.68;92.07;100354.19;2826367;82;21078;-89
2022/10/08 11:10:54;;;;;;;13.53;10.78;;;;;;;20.72;90.39;100347.90;2826366;81;21065;-91
2022/10/08 11:15:22;;;;;;;14.78;9.30;;;;;;;20.61;85.30;100344.66;2846577;81;21040;-89
2022/10/08 11:19:56;;;;;;;12.90;10.23;;;;;;;20.50;86.07;100335.71;2839389;81;21072;-88
2022/10/08 11:24:30;;;;;;;12.78;8.60;;;;;;;20.35;87.62;100347.38;2824790;82;21603;-88
2022/10/08 11:28:40;;;;;;;13.78;9.93;;;;;;;19.96;87.89;100352.58;2832079;82;21029;-89
2022/10/08 11:32:46;;;;;;;18.50;12.95;;;;;;;19.80;91.24;100350.88;2721117;85;21157;-88
2022/10/08 11:37:04;;;;;;;19.73;12.73;;;;;;;19.52;91.50;100357.72;2713379;84;21071;-90
2022/10/08 11:41:17;;;;;;;22.58;15.75;;;;;;;19.33;92.76;100352.84;2696442;86;21673;-89
2022/10/08 11:45:32;;;;;;;17.90;13.40;;;;;;;19.39;94.38;100344.86;2707241;84;21034;-90
2022/10/08 11:49:42;;;;;;;19.55;12.37;;;;;;;19.46;94.42;100346.33;2716063;85;21193;-91
2022/10/08 11:54:33;;;;;;;18.25;11.33;;;;;;;19.41;92.92;100349.56;2719161;83;21094;-91
2022/10/08 11:58:34;;;;;;;19.95;12.73;;;;;;;19.32;90.68;100345.77;2675026;86;21019;-90
2022/10/08 12:02:40;;;;;;;13.28;11.22;;;;;;;19.36;91.94;100341.68;2629817;87;21048;-90
2022/10/08 12:06:44;;;;;;;17.92;13.38;;;;;;;19.36;93.72;100340.34;2650500;86;21112;-88
2022/10/08 12:10:45;;;;;;;22.55;13.45;;;;;;;19.32;92.65;100341.20;2707435;84;21134;-91
2022/10/08 12:14:47;;;;;;;16.93;13.58;;;;;;;19.34;94.37;100338.34;2798865;83;21082;-91
2022/10/08 12:18:48;;;;;;;14.40;11.88;;;;;;;19.23;93.37;100337.73;2836826;81;21600;-89
2022/10/08 12:23:18;;;;;;;15.10;10.78;;;;;;;19.22;93.71;100332.02;2836642;82;21068;-89
2022/10/08 12:27:27;;;;;;;19.85;11.18;;;;;;;19.24;94.01;100339.41;2836102;82;21092;-87
2022/10/08 12:31:38;;;;;;;18.12;11.43;;;;;;;19.45;92.74;100335.70;2809838;82;21103;-91
2022/10/08 12:36:00;;;;;;;17.80;12.58;;;;;;;19.52;91.82;100339.33;2833458;81;21084;-87
2022/10/08 12:40:31;;;;;;;15.93;11.15;;;;;;;19.60;91.06;100333.88;2829058;82;21096;-92
2022/10/08 12:44:50;;;;;;;15.23;10.15;;;;;;;19.53;89.21;100328.87;2835617;81;21659;-92
2022/10/08 12:49:06;;;;;;;16.82;11.63;;;;;;;19.59;90.73;100331.34;2824564;81;21143;-92
2022/10/08 12:53:13;;;;;;;;;;;;;;;19.72;90.11;100328.00;2822264;82;21159;-90
2022/10/08 12:57:29;;;;;;;12.33;9.88;;;;;;;19.66;90.42;100333.66;2832399;82;20146;-91
2022/10/08 13:01:31;;;;;;;10.72;8.60;;;;;;;19.65;85.15;100323.85;2782817;83;21027;-91
2022/10/08 13:05:37;;;;;;;11.43;7.90;;;;;;;19.47;86.82;100325.56;2821246;82;21065;-91
2022/10/08 13:09:38;;;;;;;10.05;7.65;;;;;;;19.45;85.59;100325.73;2801210;82;21559;-90
2022/10/08 13:13:44;;;;;;;10.95;8.85;;;;;;;19.35;83.92;100334.61;2839353;82;21077;-90
2022/10/08 13:17:46;;;;;;;12.60;9.58;;;;;;;19.48;83.15;100333.48;2826384;82;21170;-90
2022/10/08 13:21:57;;;;;;;13.55;9.50;;;;;;;19.53;83.24;100343.20;2847973;81;21150;-92
2022/10/08 13:25:59;;;;;;;8.70;7.78;;;;;;;19.44;80.48;100342.94;2796757;82;21024;-89
2022/10/08 13:30:29;;;;;;;6.92;5.72;;;;;;;19.38;82.86;100350.42;2767525;83;21075;-91
2022/10/08 13:34:39;;;;;;;22.45;6.10;;;;;;;19.18;78.62;100353.62;2803091;81;21091;-90
2022/10/08 13:38:40;;;;;;;8.38;6.00;;;;;;;18.87;78.54;100350.97;2787201;82;21143;-90
2022/10/08 13:42:45;;;;;;;7.55;5.05;;;;;;;18.82;79.59;100354.19;2806643;82;21119;-92
2022/10/08 13:46:47;;;;;;;7.53;5.43;;;;;;;18.61;81.78;100359.70;2829419;82;21104;-92
2022/10/08 13:50:51;;;;;;;6.78;5.58;;;;;;;18.56;82.86;100349.45;2789993;82;21076;-92
2022/10/08 13:54:57;;;;;;;5.83;4.47;;;;;;;18.45;83.06;100355.25;2824380;82;21661;-92
2022/10/08 13:58:58;;;;;;;8.18;5.03;;;;;;;18.54;83.44;100352.83;2829878;82;21069;-92
2022/10/08 14:03:00;;;;;;;7.25;5.53;;;;;;;18.56;81.30;100365.61;2830344;82;21593;-95
2022/10/08 14:07:01;;;;;;;8.58;4.25;;;;;;;18.56;81.90;100369.66;2831656;82;21516;-94
2022/10/08 14:11:03;;;;;;;8.05;3.92;;;;;;;18.61;83.33;100361.05;2840332;81;20985;-94
2022/10/08 14:15:05;;;;;;;9.03;5.55;;;;;;;18.64;83.37;100362.03;2770683;82;20965;-94
2022/10/08 14:19:07;;;;;;;5.37;3.27;;;;;;;18.63;82.44;100364.41;2855135;81;21023;-91
2022/10/08 14:23:12;;;;;;;13.65;4.60;;;;;;;18.62;80.19;100360.03;2805139;82;21679;-91
2022/10/08 14:27:13;;;;;;;4.67;3.92;;;;;;;18.62;81.77;100364.07;2806696;81;21053;-91
2022/10/08 14:31:14;;;;;;;5.30;3.58;;;;;;;18.54;82.03;100358.74;2822213;82;21116;-93
2022/10/08 14:35:15;;;;;;;7.45;3.87;;;;;;;18.61;82.21;100369.66;2829761;81;21108;-91
2022/10/08 14:39:17;;;;;;;6.12;4.67;;;;;;;18.70;81.47;100365.39;2834654;82;21057;-92
2022/10/08 14:43:18;;;;;;;10.08;4.58;;;;;;;18.74;81.22;100365.85;2796329;82;21575;-91
2022/10/08 14:47:19;;;;;;;9.43;4.65;;;;;;;18.75;80.87;100356.75;2818261;81;21073;-92
2022/10/08 14:51:20;;;;;;;6.30;4.80;;;;;;;18.76;81.64;100368.38;2820525;82;21025;-92
2022/10/08 14:55:21;;;;;;;11.93;4.45;;;;;;;18.69;81.79;100367.76;2744299;82;21028;-91
2022/10/08 14:59:23;;;;;;;4.28;3.77;;;;;;;18.54;81.79;100360.09;2837414;81;21075;-92
2022/10/08 15:03:24;;;;;;;7.35;3.33;;;;;;;18.37;82.49;100366.90;2830572;81;21100;-92
2022/10/08 15:07:27;;;;;;;5.75;3.90;;;;;;;18.10;80.78;100366.34;2814893;82;23381;-91
2022/10/08 15:11:28;;;;;;;5.12;3.70;;;;;;;18.11;81.55;100368.02;2800169;83;21086;-92
2022/10/08 15:15:29;;;;;;;5.70;3.17;;;;;;;17.93;78.41;100373.57;2791856;82;21106;-91
2022/10/08 15:19:30;;;;;;;5.65;3.80;;;;;;;17.89;78.89;100374.11;2828831;82;21044;-91
2022/10/08 15:23:32;;;;;;;4.97;4.00;;;;;;;17.73;78.17;100375.81;2820588;82;21036;-90
2022/10/08 15:27:34;;;;;;;6.78;4.58;;;;;;;17.72;79.76;100383.55;2825243;81;21129;-91
2022/10/08 15:31:35;;;;;;;7.05;3.50;;;;;;;17.67;79.36;100396.66;2780915;82;21429;-91
2022/10/08 15:35:36;;;;;;;3.52;2.33;;;;;;;17.55;79.56;100403.73;2830679;82;21096;-91
2022/10/08 15:39:37;;;;;;;3.33;2.62;;;;;;;17.48;77.07;100404.58;2805712;82;21546;-91
2022/10/08 15:43:38;;;;;;;6.33;2.27;;;;;;;17.33;75.42;100402.55;2819937;82;21069;-91
2022/10/08 15:47:39;;;;;;;4.05;2.15;;;;;;;17.22;76.06;100417.16;2816357;82;21052;-91
2022/10/08 15:51:41;;;;;;;2.95;1.95;;;;;;;17.12;76.61;100421.34;2834893;81;21048;-90
2022/10/08 15:55:42;;;;;;;5.75;2.47;;;;;;;16.95;76.62;100431.20;2829605;81;21091;-91
2022/10/08 15:59:43;;;;;;;5.83;3.80;;;;;;;16.86;76.54;100441.57;2843451;81;21040;-91
2022/10/08 16:03:47;;;;;;;5.28;2.95;;;;;;;16.79;77.17;100450.78;2833953;82;21016;-91
2022/10/08 16:07:48;;;;;;;35.80;3.98;;;;;;;16.68;76.84;100453.78;2772904;84;21048;-92
2022/10/08 16:11:50;;;;;;;5.35;3.08;;;;;;;16.65;77.75;100461.64;2778653;82;21070;-91
2022/10/08 16:15:51;;;;;;;3.58;2.50;;;;;;;16.60;78.85;100466.67;2826691;82;21135;-90
2022/10/08 16:19:52;;;;;;;3.77;2.27;;;;;;;16.55;79.98;100469.83;2836839;82;21040;-91
2022/10/08 16:23:55;;;;;;;8.63;5.30;;;;;;;16.51;80.23;100469.81;2836040;82;21082;-90
2022/10/08 16:27:58;;;;;;;7.00;3.22;;;;;;;16.42;80.04;100472.95;2854854;81;21089;-91
2022/10/08 16:31:59;;;;;;;4.33;2.98;;;;;;;16.35;80.21;100477.29;2816580;82;21176;-91
2022/10/08 16:36:05;;;;;;;4.33;2.87;;;;;;;16.28;80.91;100473.53;2800321;82;21106;-90
2022/10/08 16:40:07;;;;;;;5.45;2.87;;;;;;;16.18;80.12;100482.21;2814668;82;21155;-91
2022/10/08 16:44:12;;;;;;;4.92;3.05;;;;;;;16.05;81.17;100494.19;2810938;82;21177;-91
2022/10/08 16:48:14;;;;;;;8.43;3.77;;;;;;;15.89;81.64;100507.48;2838440;82;21374;-90
2022/10/08 16:52:15;;;;;;;5.60;2.92;;;;;;;15.62;82.73;100508.72;2829070;82;21080;-91
2022/10/08 16:56:17;;;;;;;4.05;3.12;;;;;;;15.49;83.81;100514.47;2835555;81;21049;-91
2022/10/08 17:00:18;;;;;;;4.90;2.85;;;;;;;15.35;83.77;100509.66;2836524;81;21012;-91
2022/10/08 17:04:22;;;;;;;8.53;3.58;;;;;;;15.24;84.71;100521.44;2837462;81;21107;-91
2022/10/08 17:08:23;;;;;;;5.53;2.92;;;;;;;15.22;84.70;100524.73;2832310;82;21620;-91
2022/10/08 17:12:24;;;;;;;7.37;3.02;;;;;;;15.18;84.75;100540.29;2830847;82;21080;-91
2022/10/08 17:16:28;;;;;;;8.05;3.95;;;;;;;15.10;84.76;100546.39;2824587;82;21152;-91
2022/10/08 17:20:29;;;;;;;8.75;3.02;;;;;;;15.08;84.65;100548.86;2836466;82;21005;-91
2022/10/08 17:24:30;;;;;;;13.70;3.87;;;;;;;14.99;84.65;100552.80;2841068;81;21098;-90
2022/10/08 17:28:35;;;;;;;6.08;3.50;;;;;;;14.94;85.51;100559.58;2824417;82;21046;-91
2022/10/08 17:32:36;;;;;;;7.70;4.37;;;;;;;14.92;86.38;100572.28;2830997;81;21092;-91
2022/10/08 17:36:41;;;;;;;9.53;3.98;;;;;;;14.80;86.81;100587.17;2789913;82;21050;-91
2022/10/08 17:40:42;;;;;;;7.95;5.28;;;;;;;14.64;89.68;100594.94;2826501;82;21599;-90
2022/10/08 17:44:43;;;;;;;16.40;8.90;;;;;;;14.66;88.30;100613.07;2813297;82;21344;-91
2022/10/08 17:48:45;;;;;;;13.25;7.40;;;;;;;14.78;87.78;100609.76;2830624;82;21034;-91
2022/10/08 17:52:46;;;;;;;9.00;5.75;;;;;;;14.79;87.41;100610.11;2845244;81;21099;-91
2022/10/08 17:56:48;;;;;;;13.45;6.60;;;;;;;14.75;88.49;100619.42;2829603;82;21615;-91
2022/10/08 18:00:49;;;;;;;8.70;4.75;;;;;;;14.74;88.91;100628.41;2776871;83;21070;-92
2022/10/08 18:04:50;;;;;;;12.13;4.25;;;;;;;14.64;90.18;100629.27;2838833;81;21187;-92
2022/10/08 18:08:56;;;;;;;8.10;3.67;;;;;;;14.63;90.92;100632.93;2838885;82;21131;-90
2022/10/08 18:13:00;;;;;;;5.20;2.70;;;;;;;14.58;91.99;100637.88;2830330;82;21616;-90
2022/10/08 18:17:01;;;;;;;4.87;2.70;;;;;;;14.41;93.50;100640.30;2788732;82;21001;-91
2022/10/08 18:21:03;;;;;;;7.75;3.65;;;;;;;14.40;94.77;100656.48;2823302;82;21040;-91
2022/10/08 18:25:05;;;;;;;13.20;6.45;;;;;;;14.39;95.88;100663.68;2829639;82;21081;-91
2022/10/08 18:29:11;;;;;;;7.90;4.10;;;;;;;14.47;96.85;100667.47;2822491;82;20981;-91
2022/10/08 18:33:13;;;;;;;7.20;3.43;;;;;;;14.40;99.17;100670.72;2837280;82;21060;-90
2022/10/08 18:37:16;;;;;;;9.78;4.22;;;;;;;14.34;98.90;100675.78;2829365;82;21087;-91
2022/10/08 18:41:22;;;;;;;13.70;4.40;;;;;;;14.36;99.40;100677.34;2827451;82;21057;-91
2022/10/08 18:45:23;;;;;;;;;;;;;;;14.42;100.00;100679.45;2804851;82;20989;-91
2022/10/08 18:49:29;;;;;;;9.38;4.15;;;;;;;14.37;100.00;100687.06;2839941;81;20209;-91